Terminal Aerodrome Forecast
Issued by NWS Sterling, VA

Current Version | Previous Version | Text Only | Print | Product List | Glossary Off
Versions: 1 2 3 4 5 6 7 8 9 10 11 12 13 14 15 16 17 18 19 20 21 22 23 24

000
FTUS41 KLWX 251100
TAFMRB
TAF
KMRB 251132Z 2512/2612 25007KT P6SM BKN050
     FM251700 33007KT P6SM OVC050
     FM252000 VRB03KT P6SM OVC050
     FM252300 VRB03KT 2SM -SN OVC030
     FM261100 05007KT 1/2SM SN OVC005=

USA.gov is the U.S. government's official web portal to all federal, state and local government web resources and services.